sensor_id;sensor_type;location;lat;lon;timestamp;pressure;altitude;pressure_sealevel;temperature;humidity
59272;BME280;45043;51.068;7.026;2024-01-30T00:02:45;101615.38;;;6.06;60.37
59272;BME280;45043;51.068;7.026;2024-01-30T00:05:46;101614.94;;;6.01;60.44
59272;BME280;45043;51.068;7.026;2024-01-30T00:08:48;101615.81;;;6.01;60.57
59272;BME280;45043;51.068;7.026;2024-01-30T00:11:49;101606.91;;;6.02;60.45
59272;BME280;45043;51.068;7.026;2024-01-30T00:14:50;101606.50;;;6.07;60.69
59272;BME280;45043;51.068;7.026;2024-01-30T00:17:51;101609.41;;;6.04;60.45
59272;BME280;45043;51.068;7.026;2024-01-30T00:20:52;101612.03;;;6.04;60.21
59272;BME280;45043;51.068;7.026;2024-01-30T00:23:53;101602.19;;;6.06;60.25
59272;BME280;45043;51.068;7.026;2024-01-30T00:26:54;101601.22;;;6.07;60.34
59272;BME280;45043;51.068;7.026;2024-01-30T00:29:54;101607.75;;;6.12;60.19
59272;BME280;45043;51.068;7.026;2024-01-30T00:32:55;101607.59;;;6.14;60.14
59272;BME280;45043;51.068;7.026;2024-01-30T00:35:56;101598.97;;;6.12;60.15
59272;BME280;45043;51.068;7.026;2024-01-30T00:38:56;101603.56;;;6.10;59.98
59272;BME280;45043;51.068;7.026;2024-01-30T00:41:58;101596.34;;;6.12;60.09
59272;BME280;45043;51.068;7.026;2024-01-30T00:44:58;101596.50;;;6.10;60.46
59272;BME280;45043;51.068;7.026;2024-01-30T00:47:59;101597.47;;;6.09;59.99
59272;BME280;45043;51.068;7.026;2024-01-30T00:51:00;101600.13;;;6.09;60.05
59272;BME280;45043;51.068;7.026;2024-01-30T00:54:00;101599.13;;;6.10;60.13
59272;BME280;45043;51.068;7.026;2024-01-30T00:57:02;101596.91;;;6.06;59.82
59272;BME280;45043;51.068;7.026;2024-01-30T01:00:03;101589.56;;;6.00;60.11
59272;BME280;45043;51.068;7.026;2024-01-30T01:03:06;101594.16;;;5.98;60.05
59272;BME280;45043;51.068;7.026;2024-01-30T01:06:07;101587.44;;;5.94;60.22
59272;BME280;45043;51.068;7.026;2024-01-30T01:09:07;101592.72;;;5.94;60.21
59272;BME280;45043;51.068;7.026;2024-01-30T01:12:08;101596.50;;;5.91;60.20
59272;BME280;45043;51.068;7.026;2024-01-30T01:15:10;101595.13;;;5.87;60.26
59272;BME280;45043;51.068;7.026;2024-01-30T01:18:12;101597.88;;;5.85;60.45
59272;BME280;45043;51.068;7.026;2024-01-30T01:21:12;101592.88;;;5.82;60.66
59272;BME280;45043;51.068;7.026;2024-01-30T01:24:13;101595.22;;;5.85;60.40
59272;BME280;45043;51.068;7.026;2024-01-30T01:27:14;101602.03;;;5.88;60.38
59272;BME280;45043;51.068;7.026;2024-01-30T01:30:15;101596.78;;;5.88;60.38
59272;BME280;45043;51.068;7.026;2024-01-30T01:33:21;101598.44;;;5.89;60.28
59272;BME280;45043;51.068;7.026;2024-01-30T01:36:22;101599.25;;;5.89;60.19
59272;BME280;45043;51.068;7.026;2024-01-30T01:39:23;101602.88;;;5.88;60.53
59272;BME280;45043;51.068;7.026;2024-01-30T01:42:24;101599.25;;;5.89;60.15
59272;BME280;45043;51.068;7.026;2024-01-30T01:45:24;101598.97;;;5.93;60.11
59272;BME280;45043;51.068;7.026;2024-01-30T01:48:26;101597.19;;;5.93;60.34
59272;BME280;45043;51.068;7.026;2024-01-30T01:51:28;101593.44;;;5.96;60.22
59272;BME280;45043;51.068;7.026;2024-01-30T01:54:29;101593.16;;;5.89;60.26
59272;BME280;45043;51.068;7.026;2024-01-30T01:57:31;101586.50;;;5.85;60.72
59272;BME280;45043;51.068;7.026;2024-01-30T02:00:31;101585.66;;;5.84;60.29
59272;BME280;45043;51.068;7.026;2024-01-30T02:03:34;101588.44;;;5.83;60.36
59272;BME280;45043;51.068;7.026;2024-01-30T02:06:34;101573.56;;;5.82;60.50
59272;BME280;45043;51.068;7.026;2024-01-30T02:09:35;101582.75;;;5.78;60.66
59272;BME280;45043;51.068;7.026;2024-01-30T02:12:36;101578.03;;;5.81;60.54
59272;BME280;45043;51.068;7.026;2024-01-30T02:15:36;101583.28;;;5.81;60.47
59272;BME280;45043;51.068;7.026;2024-01-30T02:18:37;101579.41;;;5.85;60.49
59272;BME280;45043;51.068;7.026;2024-01-30T02:21:42;101580.53;;;5.83;60.35
59272;BME280;45043;51.068;7.026;2024-01-30T02:24:43;101570.09;;;5.81;60.54
59272;BME280;45043;51.068;7.026;2024-01-30T02:27:43;101569.69;;;5.76;60.50
59272;BME280;45043;51.068;7.026;2024-01-30T02:30:45;101576.63;;;5.77;60.75
59272;BME280;45043;51.068;7.026;2024-01-30T02:33:46;101568.56;;;5.79;60.61
59272;BME280;45043;51.068;7.026;2024-01-30T02:36:46;101569.28;;;5.81;60.63
59272;BME280;45043;51.068;7.026;2024-01-30T02:39:47;101566.78;;;5.79;60.61
59272;BME280;45043;51.068;7.026;2024-01-30T02:42:48;101565.94;;;5.79;60.78
59272;BME280;45043;51.068;7.026;2024-01-30T02:45:49;101567.63;;;5.80;60.64
59272;BME280;45043;51.068;7.026;2024-01-30T02:48:49;101565.94;;;5.79;60.67
59272;BME280;45043;51.068;7.026;2024-01-30T02:51:52;101558.47;;;5.84;60.74
59272;BME280;45043;51.068;7.026;2024-01-30T02:54:53;101554.56;;;5.88;60.46
59272;BME280;45043;51.068;7.026;2024-01-30T02:57:54;101561.50;;;5.89;60.27
59272;BME280;45043;51.068;7.026;2024-01-30T03:00:54;101554.31;;;5.91;60.29
59272;BME280;45043;51.068;7.026;2024-01-30T03:03:55;101553.16;;;5.94;60.21
59272;BME280;45043;51.068;7.026;2024-01-30T03:06:55;101547.22;;;5.92;60.57
59272;BME280;45043;51.068;7.026;2024-01-30T03:09:56;101545.84;;;5.87;60.47
59272;BME280;45043;51.068;7.026;2024-01-30T03:12:57;101545.84;;;5.87;60.43
59272;BME280;45043;51.068;7.026;2024-01-30T03:15:57;101543.88;;;5.89;60.53
59272;BME280;45043;51.068;7.026;2024-01-30T03:18:58;101545.84;;;5.87;60.11
59272;BME280;45043;51.068;7.026;2024-01-30T03:21:58;101546.50;;;5.89;60.39
59272;BME280;45043;51.068;7.026;2024-01-30T03:24:59;101539.44;;;5.90;60.54
59272;BME280;45043;51.068;7.026;2024-01-30T03:28:00;101539.31;;;5.92;60.31
59272;BME280;45043;51.068;7.026;2024-01-30T03:31:00;101540.41;;;5.89;60.53
59272;BME280;45043;51.068;7.026;2024-01-30T03:34:04;101532.09;;;5.84;60.03
59272;BME280;45043;51.068;7.026;2024-01-30T03:37:04;101522.91;;;5.78;60.74
59272;BME280;45043;51.068;7.026;2024-01-30T03:40:06;101535.16;;;5.79;60.95
59272;BME280;45043;51.068;7.026;2024-01-30T03:43:07;101530.56;;;5.81;60.67
59272;BME280;45043;51.068;7.026;2024-01-30T03:46:08;101531.53;;;5.80;60.60
59272;BME280;45043;51.068;7.026;2024-01-30T03:49:09;101527.91;;;5.81;60.71
59272;BME280;45043;51.068;7.026;2024-01-30T03:52:10;101529.03;;;5.79;60.69
59272;BME280;45043;51.068;7.026;2024-01-30T03:55:10;101526.69;;;5.76;60.81
59272;BME280;45043;51.068;7.026;2024-01-30T03:58:11;101522.94;;;5.69;61.24
59272;BME280;45043;51.068;7.026;2024-01-30T04:01:15;101525.44;;;5.70;61.19
59272;BME280;45043;51.068;7.026;2024-01-30T04:04:16;101524.59;;;5.70;60.97
59272;BME280;45043;51.068;7.026;2024-01-30T04:07:16;101519.59;;;5.66;61.08
59272;BME280;45043;51.068;7.026;2024-01-30T04:10:17;101522.78;;;5.70;61.19
59272;BME280;45043;51.068;7.026;2024-01-30T04:13:17;101520.72;;;5.74;61.00
59272;BME280;45043;51.068;7.026;2024-01-30T04:16:22;101520.41;;;5.67;60.79
59272;BME280;45043;51.068;7.026;2024-01-30T04:19:23;101513.75;;;5.63;61.41
59272;BME280;45043;51.068;7.026;2024-01-30T04:22:24;101514.75;;;5.62;61.49
59272;BME280;45043;51.068;7.026;2024-01-30T04:25:24;101517.81;;;5.57;61.51
59272;BME280;45043;51.068;7.026;2024-01-30T04:28:25;101512.09;;;5.52;61.52
59272;BME280;45043;51.068;7.026;2024-01-30T04:31:25;101512.38;;;5.49;61.53
59272;BME280;45043;51.068;7.026;2024-01-30T04:34:26;101511.69;;;5.47;61.87
59272;BME280;45043;51.068;7.026;2024-01-30T04:37:27;101504.34;;;5.51;61.78
59272;BME280;45043;51.068;7.026;2024-01-30T04:40:28;101510.59;;;5.50;61.62
59272;BME280;45043;51.068;7.026;2024-01-30T04:43:29;101514.47;;;5.46;62.00
59272;BME280;45043;51.068;7.026;2024-01-30T04:46:31;101525.69;;;5.48;62.04
59272;BME280;45043;51.068;7.026;2024-01-30T04:49:32;101525.41;;;5.51;61.74
59272;BME280;45043;51.068;7.026;2024-01-30T04:52:32;101522.22;;;5.47;61.83
59272;BME280;45043;51.068;7.026;2024-01-30T04:55:33;101513.06;;;5.41;61.95
59272;BME280;45043;51.068;7.026;2024-01-30T04:58:34;101514.84;;;5.41;62.10
59272;BME280;45043;51.068;7.026;2024-01-30T05:01:35;101516.00;;;5.38;62.24
59272;BME280;45043;51.068;7.026;2024-01-30T05:04:36;101520.41;;;5.38;62.50
59272;BME280;45043;51.068;7.026;2024-01-30T05:07:40;101515.53;;;5.33;62.24
59272;BME280;45043;51.068;7.026;2024-01-30T05:10:41;101522.47;;;5.34;62.52
59272;BME280;45043;51.068;7.026;2024-01-30T05:13:42;101517.75;;;5.38;62.20
59272;BME280;45043;51.068;7.026;2024-01-30T05:16:43;101518.47;;;5.40;62.33
59272;BME280;45043;51.068;7.026;2024-01-30T05:19:47;101520.69;;;5.35;62.26
59272;BME280;45043;51.068;7.026;2024-01-30T05:22:47;101511.25;;;5.32;62.61
59272;BME280;45043;51.068;7.026;2024-01-30T05:25:48;101506.25;;;5.29;62.59
59272;BME280;45043;51.068;7.026;2024-01-30T05:28:49;101511.41;;;5.31;62.38
59272;BME280;45043;51.068;7.026;2024-01-30T05:31:49;101506.13;;;5.40;62.87
59272;BME280;45043;51.068;7.026;2024-01-30T05:34:50;101505.19;;;5.61;62.39
59272;BME280;45043;51.068;7.026;2024-01-30T05:37:51;101501.81;;;5.78;62.00
59272;BME280;45043;51.068;7.026;2024-01-30T05:40:51;101501.69;;;5.89;61.88
59272;BME280;45043;51.068;7.026;2024-01-30T05:43:52;101502.38;;;5.92;61.74
59272;BME280;45043;51.068;7.026;2024-01-30T05:46:53;101504.88;;;6.03;61.24
59272;BME280;45043;51.068;7.026;2024-01-30T05:49:54;101508.19;;;6.05;61.13
59272;BME280;45043;51.068;7.026;2024-01-30T05:52:54;101493.75;;;6.09;60.83
59272;BME280;45043;51.068;7.026;2024-01-30T05:55:55;101492.34;;;6.14;60.72
59272;BME280;45043;51.068;7.026;2024-01-30T05:58:56;101496.53;;;6.07;60.35
59272;BME280;45043;51.068;7.026;2024-01-30T06:01:57;101502.91;;;6.05;60.98
59272;BME280;45043;51.068;7.026;2024-01-30T06:04:58;101505.41;;;6.06;60.64
59272;BME280;45043;51.068;7.026;2024-01-30T06:07:59;101498.72;;;6.12;60.55
59272;BME280;45043;51.068;7.026;2024-01-30T06:11:00;101503.44;;;6.18;60.40
59272;BME280;45043;51.068;7.026;2024-01-30T06:14:01;101505.53;;;6.24;60.25
59272;BME280;45043;51.068;7.026;2024-01-30T06:17:02;101509.13;;;6.23;59.73
59272;BME280;45043;51.068;7.026;2024-01-30T06:20:04;101505.38;;;6.26;60.09
59272;BME280;45043;51.068;7.026;2024-01-30T06:23:05;101502.00;;;6.43;59.67
59272;BME280;45043;51.068;7.026;2024-01-30T06:26:07;101503.19;;;6.58;59.35
59272;BME280;45043;51.068;7.026;2024-01-30T06:29:23;101504.47;;;6.45;59.24
59272;BME280;45043;51.068;7.026;2024-01-30T06:32:45;101503.66;;;6.44;59.30
59272;BME280;45043;51.068;7.026;2024-01-30T06:35:46;101496.16;;;6.39;59.15
59272;BME280;45043;51.068;7.026;2024-01-30T06:38:47;101497.00;;;6.30;59.31
59272;BME280;45043;51.068;7.026;2024-01-30T06:41:47;101489.41;;;6.27;59.38
59272;BME280;45043;51.068;7.026;2024-01-30T06:44:48;101492.88;;;6.28;59.66
59272;BME280;45043;51.068;7.026;2024-01-30T06:47:49;101485.09;;;6.26;59.81
59272;BME280;45043;51.068;7.026;2024-01-30T06:50:53;101484.81;;;6.29;59.82
59272;BME280;45043;51.068;7.026;2024-01-30T06:53:54;101482.97;;;6.39;59.38
59272;BME280;45043;51.068;7.026;2024-01-30T06:56:55;101483.06;;;6.57;59.17
59272;BME280;45043;51.068;7.026;2024-01-30T06:59:56;101479.59;;;6.57;58.97
59272;BME280;45043;51.068;7.026;2024-01-30T07:02:57;101486.41;;;6.50;59.20
59272;BME280;45043;51.068;7.026;2024-01-30T07:05:58;101487.38;;;6.49;59.20
59272;BME280;45043;51.068;7.026;2024-01-30T07:08:59;101487.38;;;6.49;59.21
59272;BME280;45043;51.068;7.026;2024-01-30T07:11:59;101494.03;;;6.53;59.08
59272;BME280;45043;51.068;7.026;2024-01-30T07:15:00;101486.22;;;6.61;58.68
59272;BME280;45043;51.068;7.026;2024-01-30T07:18:04;101493.28;;;6.60;58.96
59272;BME280;45043;51.068;7.026;2024-01-30T07:21:05;101508.03;;;6.63;59.00
59272;BME280;45043;51.068;7.026;2024-01-30T07:24:06;101508.47;;;6.58;58.94
59272;BME280;45043;51.068;7.026;2024-01-30T07:27:06;101508.31;;;6.60;59.01
59272;BME280;45043;51.068;7.026;2024-01-30T07:30:07;101513.38;;;6.53;59.06
59272;BME280;45043;51.068;7.026;2024-01-30T07:33:08;101514.06;;;6.46;59.07
59272;BME280;45043;51.068;7.026;2024-01-30T07:36:09;101517.28;;;6.39;59.40
59272;BME280;45043;51.068;7.026;2024-01-30T07:39:11;101521.97;;;6.46;59.53
59272;BME280;45043;51.068;7.026;2024-01-30T07:42:13;101521.56;;;6.50;58.96
59272;BME280;45043;51.068;7.026;2024-01-30T07:45:14;101518.38;;;6.47;58.99
59272;BME280;45043;51.068;7.026;2024-01-30T07:48:15;101527.94;;;6.48;59.54
59272;BME280;45043;51.068;7.026;2024-01-30T07:51:16;101528.38;;;6.43;59.28
59272;BME280;45043;51.068;7.026;2024-01-30T07:54:18;101538.41;;;6.30;59.59
59272;BME280;45043;51.068;7.026;2024-01-30T07:57:19;101526.28;;;6.47;59.47
59272;BME280;45043;51.068;7.026;2024-01-30T08:00:21;101526.13;;;6.58;59.26
59272;BME280;45043;51.068;7.026;2024-01-30T08:03:22;101533.25;;;6.75;59.03
59272;BME280;45043;51.068;7.026;2024-01-30T08:06:23;101540.34;;;6.84;58.67
59272;BME280;45043;51.068;7.026;2024-01-30T08:09:24;101542.72;;;6.88;58.70
59272;BME280;45043;51.068;7.026;2024-01-30T08:12:24;101539.59;;;7.02;58.26
59272;BME280;45043;51.068;7.026;2024-01-30T08:15:25;101541.16;;;6.95;57.74
59272;BME280;45043;51.068;7.026;2024-01-30T08:18:26;101539.63;;;6.82;58.51
59272;BME280;45043;51.068;7.026;2024-01-30T08:21:27;101536.06;;;6.83;58.51
59272;BME280;45043;51.068;7.026;2024-01-30T08:24:28;101539.53;;;6.74;58.63
59272;BME280;45043;51.068;7.026;2024-01-30T08:27:29;101531.94;;;6.61;58.70
59272;BME280;45043;51.068;7.026;2024-01-30T08:30:29;101535.03;;;6.47;59.16
59272;BME280;45043;51.068;7.026;2024-01-30T08:33:30;101523.41;;;6.40;59.50
59272;BME280;45043;51.068;7.026;2024-01-30T08:36:31;101526.03;;;6.40;59.64
59272;BME280;45043;51.068;7.026;2024-01-30T08:39:32;101524.22;;;6.41;59.85
59272;BME280;45043;51.068;7.026;2024-01-30T08:42:33;101537.53;;;6.49;60.02
59272;BME280;45043;51.068;7.026;2024-01-30T08:45:34;101540.88;;;6.51;59.83
59272;BME280;45043;51.068;7.026;2024-01-30T08:48:35;101547.25;;;6.48;60.19
59272;BME280;45043;51.068;7.026;2024-01-30T08:51:36;101553.19;;;6.60;59.77
59272;BME280;45043;51.068;7.026;2024-01-30T08:54:37;101557.91;;;6.66;59.57
59272;BME280;45043;51.068;7.026;2024-01-30T08:57:37;101559.56;;;6.67;59.40
59272;BME280;45043;51.068;7.026;2024-01-30T09:00:38;101560.56;;;6.66;59.45
59272;BME280;45043;51.068;7.026;2024-01-30T09:03:39;101561.13;;;6.60;59.57
59272;BME280;45043;51.068;7.026;2024-01-30T09:06:41;101557.81;;;6.58;59.90
59272;BME280;45043;51.068;7.026;2024-01-30T09:09:42;101562.25;;;6.57;59.78
59272;BME280;45043;51.068;7.026;2024-01-30T09:12:43;101571.41;;;6.63;59.80
59272;BME280;45043;51.068;7.026;2024-01-30T09:15:43;101570.56;;;6.62;60.42
59272;BME280;45043;51.068;7.026;2024-01-30T09:18:45;101570.41;;;6.64;59.87
59272;BME280;45043;51.068;7.026;2024-01-30T09:21:46;101566.91;;;6.73;59.92
59272;BME280;45043;51.068;7.026;2024-01-30T09:24:46;101570.41;;;6.83;59.81
59272;BME280;45043;51.068;7.026;2024-01-30T09:27:47;101578.88;;;6.87;59.94
59272;BME280;45043;51.068;7.026;2024-01-30T09:30:47;101583.84;;;6.90;59.68
59272;BME280;45043;51.068;7.026;2024-01-30T09:33:47;101594.38;;;7.00;59.37
59272;BME280;45043;51.068;7.026;2024-01-30T09:36:49;101598.81;;;7.09;59.30
59272;BME280;45043;51.068;7.026;2024-01-30T09:39:50;101603.63;;;7.14;59.21
59272;BME280;45043;51.068;7.026;2024-01-30T09:42:52;101597.81;;;7.10;59.02
59272;BME280;45043;51.068;7.026;2024-01-30T09:45:55;101596.81;;;7.11;59.29
59272;BME280;45043;51.068;7.026;2024-01-30T09:48:57;101602.22;;;7.19;59.02
59272;BME280;45043;51.068;7.026;2024-01-30T09:51:58;101605.09;;;7.26;58.79
59272;BME280;45043;51.068;7.026;2024-01-30T09:55:03;101596.72;;;7.30;58.74
59272;BME280;45043;51.068;7.026;2024-01-30T09:58:03;101596.72;;;7.30;58.72
59272;BME280;45043;51.068;7.026;2024-01-30T10:01:04;101599.38;;;7.30;58.85
59272;BME280;45043;51.068;7.026;2024-01-30T10:04:08;101613.56;;;7.29;58.90
59272;BME280;45043;51.068;7.026;2024-01-30T10:07:10;101608.00;;;7.32;59.11
59272;BME280;45043;51.068;7.026;2024-01-30T10:10:11;101608.97;;;7.31;58.72
59272;BME280;45043;51.068;7.026;2024-01-30T10:13:12;101599.91;;;7.34;58.60
59272;BME280;45043;51.068;7.026;2024-01-30T10:16:15;101613.66;;;7.38;58.86
59272;BME280;45043;51.068;7.026;2024-01-30T10:19:18;101615.28;;;7.48;58.69
59272;BME280;45043;51.068;7.026;2024-01-30T10:22:19;101599.94;;;7.52;58.45
59272;BME280;45043;51.068;7.026;2024-01-30T10:25:21;101602.66;;;7.60;58.65
59272;BME280;45043;51.068;7.026;2024-01-30T10:28:22;101599.53;;;7.74;58.41
59272;BME280;45043;51.068;7.026;2024-01-30T10:31:23;101603.59;;;7.87;58.03
59272;BME280;45043;51.068;7.026;2024-01-30T10:34:24;101605.94;;;7.90;57.86
59272;BME280;45043;51.068;7.026;2024-01-30T10:37:25;101613.88;;;7.90;57.90
59272;BME280;45043;51.068;7.026;2024-01-30T10:40:28;101610.81;;;7.94;57.58
59272;BME280;45043;51.068;7.026;2024-01-30T10:43:35;101608.53;;;7.99;57.66
59272;BME280;45043;51.068;7.026;2024-01-30T10:46:41;101604.66;;;7.94;57.61
59272;BME280;45043;51.068;7.026;2024-01-30T10:49:43;101595.53;;;7.88;57.75
59272;BME280;45043;51.068;7.026;2024-01-30T10:52:44;101601.06;;;7.95;57.90
59272;BME280;45043;51.068;7.026;2024-01-30T10:55:47;101604.66;;;7.94;57.66
59272;BME280;45043;51.068;7.026;2024-01-30T10:58:52;101590.47;;;7.95;57.61
59272;BME280;45043;51.068;7.026;2024-01-30T11:01:53;101592.06;;;8.05;57.30
59272;BME280;45043;51.068;7.026;2024-01-30T11:04:58;101587.94;;;8.11;57.17
59272;BME280;45043;51.068;7.026;2024-01-30T11:08:10;101587.66;;;8.14;57.26
59272;BME280;45043;51.068;7.026;2024-01-30T11:11:12;101591.59;;;8.28;57.09
59272;BME280;45043;51.068;7.026;2024-01-30T11:14:13;101598.47;;;8.39;56.79
59272;BME280;45043;51.068;7.026;2024-01-30T11:17:13;101600.78;;;8.42;56.55
59272;BME280;45043;51.068;7.026;2024-01-30T11:20:30;101591.88;;;8.43;57.25
59272;BME280;45043;51.068;7.026;2024-01-30T11:23:36;101593.34;;;8.45;56.30
59272;BME280;45043;51.068;7.026;2024-01-30T11:26:37;101596.47;;;8.41;56.58
59272;BME280;45043;51.068;7.026;2024-01-30T11:29:40;101587.75;;;8.48;56.42
59272;BME280;45043;51.068;7.026;2024-01-30T11:32:40;101581.03;;;8.54;56.10
59272;BME280;45043;51.068;7.026;2024-01-30T11:35:42;101587.53;;;8.68;56.26
59272;BME280;45043;51.068;7.026;2024-01-30T11:38:43;101580.84;;;8.82;55.88
59272;BME280;45043;51.068;7.026;2024-01-30T11:41:46;101588.69;;;8.91;55.85
59272;BME280;45043;51.068;7.026;2024-01-30T11:44:47;101586.38;;;8.96;55.54
59272;BME280;45043;51.068;7.026;2024-01-30T11:47:48;101586.59;;;9.03;55.52
59272;BME280;45043;51.068;7.026;2024-01-30T11:50:49;101591.88;;;9.03;55.29
59272;BME280;45043;51.068;7.026;2024-01-30T11:53:52;101588.53;;;9.01;55.40
59272;BME280;45043;51.068;7.026;2024-01-30T11:56:52;101586.78;;;9.10;55.38
59272;BME280;45043;51.068;7.026;2024-01-30T11:59:53;101595.91;;;9.15;54.87
59272;BME280;45043;51.068;7.026;2024-01-30T12:02:55;101590.28;;;9.18;55.12
59272;BME280;45043;51.068;7.026;2024-01-30T12:06:02;101589.47;;;9.18;55.30
59272;BME280;45043;51.068;7.026;2024-01-30T12:09:03;101595.59;;;9.18;54.99
59272;BME280;45043;51.068;7.026;2024-01-30T12:12:10;101591.13;;;9.19;55.08
59272;BME280;45043;51.068;7.026;2024-01-30T12:15:13;101590.59;;;9.15;54.89
59272;BME280;45043;51.068;7.026;2024-01-30T12:18:18;101601.88;;;9.17;54.82
59272;BME280;45043;51.068;7.026;2024-01-30T12:21:19;101600.41;;;9.23;55.07
59272;BME280;45043;51.068;7.026;2024-01-30T12:24:19;101598.94;;;9.20;55.14
59272;BME280;45043;51.068;7.026;2024-01-30T12:27:21;101602.72;;;9.18;55.13
59272;BME280;45043;51.068;7.026;2024-01-30T12:30:22;101601.06;;;9.17;54.85
59272;BME280;45043;51.068;7.026;2024-01-30T12:33:26;101595.28;;;9.21;55.16
59272;BME280;45043;51.068;7.026;2024-01-30T12:36:28;101591.97;;;9.27;54.92
59272;BME280;45043;51.068;7.026;2024-01-30T12:39:29;101594.97;;;9.24;55.13
59272;BME280;45043;51.068;7.026;2024-01-30T12:42:30;101601.41;;;9.22;54.99
59272;BME280;45043;51.068;7.026;2024-01-30T12:45:31;101603.38;;;9.20;55.30
59272;BME280;45043;51.068;7.026;2024-01-30T12:48:32;101602.84;;;9.16;55.26
59272;BME280;45043;51.068;7.026;2024-01-30T12:51:34;101593.09;;;9.17;55.44
59272;BME280;45043;51.068;7.026;2024-01-30T12:54:36;101600.69;;;9.12;55.32
59272;BME280;45043;51.068;7.026;2024-01-30T12:57:36;101605.78;;;9.05;55.96
59272;BME280;45043;51.068;7.026;2024-01-30T13:00:37;101611.75;;;8.99;56.08
59272;BME280;45043;51.068;7.026;2024-01-30T13:03:38;101606.75;;;8.96;56.29
59272;BME280;45043;51.068;7.026;2024-01-30T13:06:38;101616.00;;;8.92;56.34
59272;BME280;45043;51.068;7.026;2024-01-30T13:09:39;101614.34;;;8.91;56.34
59272;BME280;45043;51.068;7.026;2024-01-30T13:12:40;101625.28;;;8.88;56.65
59272;BME280;45043;51.068;7.026;2024-01-30T13:15:40;101613.50;;;8.90;56.64
59272;BME280;45043;51.068;7.026;2024-01-30T13:18:42;101622.97;;;8.93;56.93
59272;BME280;45043;51.068;7.026;2024-01-30T13:21:43;101617.53;;;8.94;56.87
59272;BME280;45043;51.068;7.026;2024-01-30T13:24:44;101620.63;;;8.90;57.12
59272;BME280;45043;51.068;7.026;2024-01-30T13:27:45;101615.28;;;8.82;57.30
59272;BME280;45043;51.068;7.026;2024-01-30T13:30:46;101627.19;;;8.77;57.34
59272;BME280;45043;51.068;7.026;2024-01-30T13:33:46;101630.97;;;8.75;57.57
59272;BME280;45043;51.068;7.026;2024-01-30T13:36:49;101636.69;;;8.62;58.24
59272;BME280;45043;51.068;7.026;2024-01-30T13:39:49;101635.34;;;8.58;58.79
59272;BME280;45043;51.068;7.026;2024-01-30T13:42:53;101627.88;;;8.53;58.94
59272;BME280;45043;51.068;7.026;2024-01-30T13:45:55;101631.78;;;8.49;59.33
59272;BME280;45043;51.068;7.026;2024-01-30T13:48:55;101637.56;;;8.45;59.49
59272;BME280;45043;51.068;7.026;2024-01-30T13:51:57;101646.97;;;8.39;59.70
59272;BME280;45043;51.068;7.026;2024-01-30T13:54:59;101652.03;;;8.32;60.09
59272;BME280;45043;51.068;7.026;2024-01-30T13:58:00;101640.91;;;8.29;60.86
59272;BME280;45043;51.068;7.026;2024-01-30T14:01:02;101664.47;;;8.22;61.61
59272;BME280;45043;51.068;7.026;2024-01-30T14:04:03;101638.75;;;8.15;62.32
59272;BME280;45043;51.068;7.026;2024-01-30T14:07:05;101643.53;;;8.11;62.63
59272;BME280;45043;51.068;7.026;2024-01-30T14:10:06;101661.38;;;8.09;63.12
59272;BME280;45043;51.068;7.026;2024-01-30T14:13:07;101655.09;;;8.10;63.23
59272;BME280;45043;51.068;7.026;2024-01-30T14:16:08;101652.47;;;8.10;63.43
59272;BME280;45043;51.068;7.026;2024-01-30T14:19:09;101653.28;;;8.11;63.17
59272;BME280;45043;51.068;7.026;2024-01-30T14:22:09;101646.34;;;8.10;63.62
59272;BME280;45043;51.068;7.026;2024-01-30T14:25:10;101651.47;;;8.11;63.50
59272;BME280;45043;51.068;7.026;2024-01-30T14:28:11;101644.75;;;8.17;63.68
59272;BME280;45043;51.068;7.026;2024-01-30T14:31:11;101646.53;;;8.16;63.54
59272;BME280;45043;51.068;7.026;2024-01-30T14:34:13;101637.34;;;8.20;63.45
59272;BME280;45043;51.068;7.026;2024-01-30T14:37:14;101642.63;;;8.20;63.73
59272;BME280;45043;51.068;7.026;2024-01-30T14:40:15;101646.41;;;8.18;63.58
59272;BME280;45043;51.068;7.026;2024-01-30T14:43:17;101653.53;;;8.17;63.95
59272;BME280;45043;51.068;7.026;2024-01-30T14:46:18;101653.53;;;8.17;63.78
59272;BME280;45043;51.068;7.026;2024-01-30T14:49:18;101647.41;;;8.17;64.10
59272;BME280;45043;51.068;7.026;2024-01-30T14:52:19;101646.53;;;8.16;64.15
59272;BME280;45043;51.068;7.026;2024-01-30T14:55:20;101648.22;;;8.17;63.77
59272;BME280;45043;51.068;7.026;2024-01-30T14:58:21;101657.47;;;8.13;64.12
59272;BME280;45043;51.068;7.026;2024-01-30T15:01:22;101655.41;;;8.07;63.94
59272;BME280;45043;51.068;7.026;2024-01-30T15:04:23;101663.88;;;8.11;64.20
59272;BME280;45043;51.068;7.026;2024-01-30T15:07:24;101664.69;;;8.11;64.87
59272;BME280;45043;51.068;7.026;2024-01-30T15:10:25;101667.72;;;8.16;64.17
59272;BME280;45043;51.068;7.026;2024-01-30T15:13:26;101669.09;;;8.20;64.05
59272;BME280;45043;51.068;7.026;2024-01-30T15:16:26;101671.75;;;8.20;64.23
59272;BME280;45043;51.068;7.026;2024-01-30T15:19:28;101665.22;;;8.15;64.27
59272;BME280;45043;51.068;7.026;2024-01-30T15:22:29;101673.63;;;8.10;64.66
59272;BME280;45043;51.068;7.026;2024-01-30T15:25:30;101675.75;;;8.06;64.50
59272;BME280;45043;51.068;7.026;2024-01-30T15:28:38;101677.56;;;8.06;64.59
59272;BME280;45043;51.068;7.026;2024-01-30T15:31:39;101685.63;;;8.04;64.59
59272;BME280;45043;51.068;7.026;2024-01-30T15:34:40;101688.44;;;8.03;64.54
59272;BME280;45043;51.068;7.026;2024-01-30T15:37:40;101697.50;;;8.00;64.59
59272;BME280;45043;51.068;7.026;2024-01-30T15:40:41;101707.09;;;8.01;64.98
59272;BME280;45043;51.068;7.026;2024-01-30T15:43:42;101713.25;;;8.02;64.64
59272;BME280;45043;51.068;7.026;2024-01-30T15:46:43;101712.94;;;8.05;64.70
59272;BME280;45043;51.068;7.026;2024-01-30T15:49:43;101727.03;;;8.05;64.75
59272;BME280;45043;51.068;7.026;2024-01-30T15:52:44;101725.50;;;8.03;64.85
59272;BME280;45043;51.068;7.026;2024-01-30T15:55:45;101739.72;;;8.02;64.88
59272;BME280;45043;51.068;7.026;2024-01-30T15:58:47;101745.75;;;7.94;64.87
59272;BME280;45043;51.068;7.026;2024-01-30T16:01:50;101744.50;;;7.89;65.42